Barrington Woods, Indiana
Current Conditions -  °F | °C
As of 10:54 AM on Thursday 30 Oct 2014 (Local Time) from KFWA Reporting Station
Overcast Overcast  
Wind Chill: 45°   Ceiling: 3800
Heat Index: 45°   Visibility: 10mi
Dew Point: 37°   Wind: 3mph
Humidity: 74%   Direction: 240°WSW
Pressure: 30.16"   Gusts: NA
Location:  40.8317°N, 84.9398°W
Report Text: KFWA 301454Z 24003KT 10SM OVC038 07/03 A3016 RMK AO2 SLP219 T00720028 50004
Loading
Personal Weather Stations






























Interactive Weather Map
Tropical Storm Tracking
New forecast layout! Learn more

10-Day Weather Forecast

Advertisements
Track Severe Weather on mobile